Homerville, Ohio
Current Conditions -  °F | °C
As of 7:56 PM on Wednesday 22 Oct 2014 (Local Time) from KBJJ Reporting Station
Overcast Overcast  
Wind Chill: 47°   Ceiling: 3400
Heat Index: 49°   Visibility: 10mi
Dew Point: 42°   Wind: 6mph
Humidity: 77%   Direction: 340°NNW
Pressure: 30.24"   Gusts: NA
Location:  41.03°N, 82.13°W
Report Text: KBJJ 222356Z AUTO 34005KT 10SM OVC034 09/06 A3024 RMK AO2 SLP245 T00940056 10100 20089 58002 TSNO
Loading
Personal Weather Stations






























Interactive Weather Map New forecast layout! Learn more

10-Day Weather Forecast

Advertisements
Track Severe Weather on mobile